createdAt,value
2018-06-14T00:00:54.055Z,1.30
2018-06-14T00:03:23.017Z,1.30
2018-06-14T00:05:52.017Z,1.60
2018-06-14T00:08:20.980Z,1.00
2018-06-14T00:10:50.228Z,1.33
2018-06-14T00:13:19.222Z,1.07
2018-06-14T00:15:47.579Z,1.30
2018-06-14T00:18:16.272Z,1.40
2018-06-14T00:20:45.252Z,1.30
2018-06-14T00:23:14.509Z,1.30
2018-06-14T00:25:43.426Z,1.30
2018-06-14T00:28:12.453Z,1.50
2018-06-14T00:30:41.420Z,1.30
2018-06-14T00:33:10.484Z,1.37
2018-06-14T00:35:39.522Z,1.53
2018-06-14T00:38:08.759Z,1.70
2018-06-14T00:40:37.733Z,1.20
2018-06-14T00:43:06.740Z,1.33
2018-06-14T00:45:36.002Z,1.37
2018-06-14T00:48:04.878Z,1.37
2018-06-14T00:50:34.202Z,1.50
2018-06-14T00:53:03.689Z,1.40
2018-06-14T00:55:32.873Z,1.57
2018-06-14T00:58:01.902Z,1.43
2018-06-14T01:00:30.654Z,1.30
2018-06-14T01:02:59.772Z,1.33
2018-06-14T01:05:29.084Z,1.30
2018-06-14T01:07:58.189Z,1.60
2018-06-14T01:10:26.986Z,1.53
2018-06-14T01:12:55.947Z,1.40
2018-06-14T01:15:24.851Z,1.90
2018-06-14T01:17:54.095Z,1.30
2018-06-14T01:20:23.042Z,1.57
2018-06-14T01:22:51.970Z,1.80
2018-06-14T01:25:20.819Z,1.53
2018-06-14T01:27:50.049Z,2.73
2018-06-14T01:30:19.278Z,1.50
2018-06-14T01:32:50.421Z,1.67
2018-06-14T01:38:25.025Z,1.50
2018-06-14T01:40:53.936Z,1.77
2018-06-14T01:43:23.670Z,1.30
2018-06-14T01:45:52.134Z,1.57
2018-06-14T01:48:20.585Z,1.60
2018-06-14T01:50:49.127Z,1.60
2018-06-14T01:53:18.673Z,1.63
2018-06-14T01:55:47.147Z,1.50
2018-06-14T01:58:15.672Z,1.47
2018-06-14T02:00:44.244Z,2.10
2018-06-14T02:03:12.853Z,2.50
2018-06-14T02:05:41.420Z,1.90
2018-06-14T02:08:09.940Z,3.13
2018-06-14T02:10:39.408Z,2.20
2018-06-14T02:13:07.972Z,1.63
2018-06-14T02:15:36.556Z,2.17
2018-06-14T02:18:05.104Z,1.87
2018-06-14T02:20:33.550Z,1.90
2018-06-14T02:23:02.070Z,3.27
2018-06-14T02:25:30.613Z,2.50
2018-06-14T02:27:59.229Z,1.70
2018-06-14T02:30:27.809Z,2.60
2018-06-14T02:32:56.540Z,2.23
2018-06-14T02:35:24.920Z,2.83
2018-06-14T02:37:53.443Z,2.60
2018-06-14T02:40:22.158Z,2.40
2018-06-14T02:42:50.739Z,1.97
2018-06-14T02:45:19.334Z,3.30
2018-06-14T02:47:47.909Z,2.10
2018-06-14T02:50:16.365Z,2.17
2018-06-14T02:52:44.810Z,2.70
2018-06-14T02:55:13.395Z,2.10
2018-06-14T02:57:42.076Z,1.83
2018-06-14T03:00:10.693Z,3.60
2018-06-14T03:02:39.341Z,3.43
2018-06-14T03:05:07.922Z,2.87
2018-06-14T03:07:36.896Z,2.50
2018-06-14T03:10:06.285Z,3.13
2018-06-14T03:12:34.863Z,2.87
2018-06-14T03:15:03.836Z,2.50
2018-06-14T03:17:32.281Z,2.10
2018-06-14T03:20:00.728Z,3.07
2018-06-14T03:22:29.260Z,2.60
2018-06-14T03:24:58.017Z,2.60
2018-06-14T03:27:26.609Z,2.47
2018-06-14T03:29:55.049Z,2.40
2018-06-14T03:32:23.495Z,2.67
2018-06-14T03:34:51.997Z,2.87
2018-06-14T03:37:20.585Z,2.73
2018-06-14T03:39:49.269Z,4.20
2018-06-14T03:42:18.880Z,3.60
2018-06-14T03:44:47.304Z,2.63
2018-06-14T03:47:15.923Z,2.40
2018-06-14T03:49:44.533Z,3.00
2018-06-14T03:52:13.629Z,4.63
2018-06-14T03:54:42.201Z,2.70
2018-06-14T03:57:11.145Z,2.90
2018-06-14T03:59:39.720Z,3.07
2018-06-14T04:02:08.262Z,4.50
2018-06-14T04:04:36.829Z,3.03
2018-06-14T04:07:05.600Z,3.57
2018-06-14T04:09:34.197Z,4.37
2018-06-14T04:12:02.665Z,3.20
2018-06-14T04:14:31.280Z,2.63
2018-06-14T04:16:59.708Z,2.80
2018-06-14T04:19:28.271Z,3.87
2018-06-14T04:21:56.974Z,2.77
2018-06-14T04:24:25.590Z,2.40
2018-06-14T04:26:54.006Z,3.43
2018-06-14T04:29:22.685Z,4.57
2018-06-14T04:31:51.185Z,3.23
2018-06-14T04:34:20.745Z,4.23
2018-06-14T04:36:49.303Z,3.30
2018-06-14T04:39:17.764Z,3.63
2018-06-14T04:41:46.230Z,4.70
2018-06-14T04:44:14.736Z,2.90
2018-06-14T04:46:43.748Z,4.50
2018-06-14T04:49:12.378Z,3.63
2018-06-14T04:51:41.808Z,4.00
2018-06-14T04:54:10.416Z,3.70
2018-06-14T04:56:38.981Z,3.07
2018-06-14T04:59:07.532Z,3.20
2018-06-14T05:01:36.125Z,3.70
2018-06-14T05:04:04.729Z,4.07
2018-06-14T05:06:33.372Z,3.37
2018-06-14T05:09:01.945Z,3.10
2018-06-14T05:11:30.377Z,3.10
2018-06-14T05:13:59.006Z,4.00
2018-06-14T05:16:27.541Z,2.90
2018-06-14T05:18:56.238Z,3.20
2018-06-14T05:21:24.677Z,3.20
2018-06-14T05:23:53.265Z,3.53
2018-06-14T05:26:21.848Z,3.77
2018-06-14T05:28:50.570Z,3.20
2018-06-14T05:31:24.848Z,2.70
2018-06-14T05:33:53.425Z,3.30
2018-06-14T05:36:22.789Z,2.50
2018-06-14T05:38:52.858Z,2.80
2018-06-14T05:41:21.241Z,3.20
2018-06-14T05:43:49.800Z,3.13
2018-06-14T05:46:18.244Z,2.47
2018-06-14T05:48:46.717Z,2.43
2018-06-14T05:51:15.192Z,3.20
2018-06-14T05:53:43.568Z,2.50
2018-06-14T05:56:11.986Z,2.90
2018-06-14T05:58:40.927Z,2.60
2018-06-14T06:01:09.525Z,2.60
2018-06-14T06:03:38.021Z,2.50
2018-06-14T06:06:06.526Z,3.20
2018-06-14T06:08:35.010Z,2.83
2018-06-14T06:11:03.619Z,3.27
2018-06-14T06:13:32.117Z,2.80
2018-06-14T06:16:00.576Z,2.67
2018-06-14T06:18:29.024Z,3.33
2018-06-14T06:20:57.485Z,2.47
2018-06-14T06:23:26.061Z,2.50
2018-06-14T06:25:54.557Z,3.03
2018-06-14T06:28:23.080Z,2.53
2018-06-14T06:30:51.522Z,3.17
2018-06-14T06:33:20.011Z,2.47
2018-06-14T06:35:48.564Z,2.60
2018-06-14T06:38:17.021Z,2.70
2018-06-14T06:40:45.597Z,4.33
2018-06-14T06:43:14.164Z,2.33
2018-06-14T06:45:42.657Z,3.00
2018-06-14T06:48:12.300Z,2.97
2018-06-14T06:50:40.912Z,2.57
2018-06-14T06:53:09.490Z,3.00
2018-06-14T06:55:37.921Z,2.40
2018-06-14T06:58:06.316Z,3.70
2018-06-14T07:00:34.762Z,2.20
2018-06-14T07:03:03.237Z,2.20
2018-06-14T07:05:31.736Z,2.07
2018-06-14T07:08:00.180Z,2.50
2018-06-14T07:10:28.677Z,3.07
2018-06-14T07:12:57.163Z,2.17
2018-06-14T07:15:25.618Z,2.63
2018-06-14T07:17:54.125Z,3.07
2018-06-14T07:20:22.583Z,2.30
2018-06-14T07:22:51.164Z,1.90
2018-06-14T07:25:19.524Z,2.10
2018-06-14T07:27:48.015Z,2.70
2018-06-14T07:30:16.435Z,2.43
2018-06-14T07:32:45.013Z,2.63
2018-06-14T07:35:13.479Z,1.93
2018-06-14T07:37:48.829Z,2.33
2018-06-14T07:40:17.524Z,2.80
2018-06-14T07:42:45.942Z,2.10
2018-06-14T07:45:14.492Z,3.10
2018-06-14T07:47:42.959Z,3.57
2018-06-14T07:50:11.421Z,3.90
2018-06-14T07:52:39.856Z,3.10
2018-06-14T07:55:08.324Z,3.13
2018-06-14T07:57:36.679Z,3.50
2018-06-14T08:00:05.194Z,4.27
2018-06-14T08:02:33.568Z,2.47
2018-06-14T08:05:01.997Z,3.30
2018-06-14T08:07:30.383Z,3.20
2018-06-14T08:09:58.880Z,2.90
2018-06-14T08:12:27.450Z,2.90
2018-06-14T08:14:55.899Z,2.73
2018-06-14T08:17:24.469Z,2.63
2018-06-14T08:19:52.940Z,2.50
2018-06-14T08:22:21.489Z,2.37
2018-06-14T08:24:49.549Z,2.83
2018-06-14T08:27:17.937Z,2.83
2018-06-14T08:29:46.347Z,2.97
2018-06-14T08:32:14.820Z,2.30
2018-06-14T08:34:43.285Z,2.60
2018-06-14T08:37:11.705Z,2.67
2018-06-14T08:39:40.132Z,2.50
2018-06-14T08:42:15.784Z,3.00
2018-06-14T08:44:44.246Z,3.30
2018-06-14T08:47:12.680Z,1.77
2018-06-14T08:49:41.060Z,2.77
2018-06-14T08:52:09.505Z,3.10
2018-06-14T08:54:39.655Z,2.20
2018-06-14T08:57:08.140Z,2.90
2018-06-14T08:59:36.520Z,2.80
2018-06-14T09:02:05.081Z,2.70
2018-06-14T09:04:33.777Z,2.30
2018-06-14T09:07:02.241Z,2.50
2018-06-14T09:09:30.633Z,2.43
2018-06-14T09:11:59.152Z,2.20
2018-06-14T09:14:27.504Z,2.30
2018-06-14T09:16:55.988Z,2.70
2018-06-14T09:19:24.476Z,2.47
2018-06-14T09:21:52.999Z,2.20
2018-06-14T09:24:21.401Z,2.40
2018-06-14T09:26:49.932Z,1.87
2018-06-14T09:29:18.387Z,1.90
2018-06-14T09:31:46.822Z,1.80
2018-06-14T09:34:15.117Z,2.70
2018-06-14T09:36:43.516Z,2.33
2018-06-14T09:39:11.944Z,2.30
2018-06-14T09:41:42.384Z,1.93
2018-06-14T09:44:10.888Z,3.13
2018-06-14T09:46:39.352Z,2.33
2018-06-14T09:49:10.509Z,2.23
2018-06-14T09:51:39.509Z,2.00
2018-06-14T09:54:07.919Z,2.23
2018-06-14T09:56:36.436Z,2.10
2018-06-14T09:59:07.094Z,2.60
2018-06-14T10:01:35.593Z,2.17
2018-06-14T10:04:04.117Z,2.33
2018-06-14T10:06:32.661Z,2.17
2018-06-14T10:09:01.132Z,2.20
2018-06-14T10:11:29.634Z,2.67
2018-06-14T10:13:58.150Z,2.27
2018-06-14T10:16:26.601Z,2.10
2018-06-14T10:18:55.161Z,2.07
2018-06-14T10:21:23.649Z,1.80
2018-06-14T10:23:52.086Z,2.80
2018-06-14T10:26:20.500Z,2.43
2018-06-14T10:28:49.057Z,3.13
2018-06-14T10:31:17.444Z,2.27
2018-06-14T10:33:46.048Z,2.23
2018-06-14T10:36:14.273Z,2.43
2018-06-14T10:38:42.492Z,1.73
2018-06-14T10:41:10.754Z,2.37
2018-06-14T10:43:38.975Z,2.47
2018-06-14T10:46:07.347Z,2.10
2018-06-14T10:48:35.587Z,2.87
2018-06-14T10:51:03.831Z,2.15
2018-06-14T10:53:32.075Z,1.82
2018-06-14T10:56:00.317Z,2.47
2018-06-14T10:58:28.605Z,1.70
2018-06-14T11:00:56.879Z,2.00
2018-06-14T11:03:25.216Z,2.00
2018-06-14T11:05:53.557Z,1.67
2018-06-14T11:08:21.811Z,1.57
2018-06-14T11:10:50.092Z,1.77
2018-06-14T11:13:21.000Z,1.70
2018-06-14T11:15:49.227Z,2.22
2018-06-14T11:18:17.569Z,2.00
2018-06-14T11:20:45.772Z,1.80
2018-06-14T11:23:14.031Z,2.10
2018-06-14T11:25:42.274Z,2.27
2018-06-14T11:28:10.677Z,2.25
2018-06-14T11:30:40.932Z,1.90
2018-06-14T11:33:09.196Z,1.90
2018-06-14T11:35:37.517Z,2.20
2018-06-14T11:38:06.026Z,2.20
2018-06-14T11:40:34.916Z,2.05
2018-06-14T11:43:03.306Z,2.12
2018-06-14T11:45:31.709Z,1.90
2018-06-14T11:48:00.090Z,2.47
2018-06-14T11:50:28.532Z,2.12
2018-06-14T11:52:56.900Z,2.10
2018-06-14T11:55:25.300Z,3.10
2018-06-14T11:57:53.681Z,1.70
2018-06-14T12:00:22.078Z,2.55
2018-06-14T12:02:50.602Z,1.90
2018-06-14T12:05:19.065Z,1.90
2018-06-14T12:07:47.516Z,2.15
2018-06-14T12:10:15.928Z,1.72
2018-06-14T12:12:44.372Z,1.85
2018-06-14T12:15:12.924Z,1.77
2018-06-14T12:17:41.364Z,2.58
2018-06-14T12:20:09.787Z,1.98
2018-06-14T12:22:38.238Z,2.10
2018-06-14T12:25:06.660Z,1.92
2018-06-14T12:27:35.195Z,1.90
2018-06-14T12:30:03.613Z,2.27
2018-06-14T12:32:31.665Z,2.45
2018-06-14T12:34:59.952Z,2.40
2018-06-14T12:37:28.429Z,2.00
2018-06-14T12:39:56.827Z,2.15
2018-06-14T12:42:25.247Z,2.40
2018-06-14T12:44:53.743Z,3.30
2018-06-14T12:47:22.164Z,3.40
2018-06-14T12:49:50.617Z,2.30
2018-06-14T12:52:19.156Z,2.83
2018-06-14T12:54:47.236Z,3.83
2018-06-14T12:57:15.564Z,2.87
2018-06-14T12:59:44.013Z,3.08
2018-06-14T13:02:12.585Z,2.77
2018-06-14T13:04:41.065Z,3.42
2018-06-14T13:07:09.545Z,2.60
2018-06-14T13:09:37.603Z,3.33
2018-06-14T13:12:05.969Z,3.55
2018-06-14T13:14:34.354Z,2.37
2018-06-14T13:17:02.796Z,3.27
2018-06-14T13:19:31.292Z,3.35
2018-06-14T13:21:59.721Z,3.12
2018-06-14T13:24:33.641Z,3.50
2018-06-14T13:27:02.041Z,3.62
2018-06-14T13:29:33.836Z,3.02
2018-06-14T13:32:02.220Z,2.62
2018-06-14T13:34:30.697Z,2.90
2018-06-14T13:36:59.253Z,3.08
2018-06-14T13:39:27.636Z,4.00
2018-06-14T13:41:56.115Z,3.17
2018-06-14T13:44:24.616Z,3.20
2018-06-14T13:46:53.021Z,3.17
2018-06-14T13:49:21.500Z,2.95
2018-06-14T13:51:49.909Z,3.80
2018-06-14T13:54:18.528Z,3.40
2018-06-14T13:56:47.974Z,3.12
2018-06-14T13:59:16.388Z,2.52
2018-06-14T14:01:45.089Z,2.77
2018-06-14T14:04:13.417Z,3.08
2018-06-14T14:06:41.847Z,2.70
2018-06-14T14:09:11.744Z,3.35
2018-06-14T14:11:39.899Z,2.70
2018-06-14T14:14:08.196Z,2.83
2018-06-14T14:16:36.618Z,2.83
2018-06-14T14:19:07.099Z,2.70
2018-06-14T14:21:35.247Z,2.97
2018-06-14T14:24:03.565Z,3.00
2018-06-14T14:26:31.916Z,2.73
2018-06-14T14:29:00.316Z,3.63
2018-06-14T14:31:28.844Z,3.00
2018-06-14T14:33:57.305Z,2.70
2018-06-14T14:36:25.700Z,2.30
2018-06-14T14:38:54.220Z,2.80
2018-06-14T14:41:22.792Z,2.60
2018-06-14T14:43:51.608Z,2.47
2018-06-14T14:46:19.985Z,2.80
2018-06-14T14:48:48.372Z,3.50
2018-06-14T14:51:16.795Z,2.83
2018-06-14T14:53:46.385Z,2.53
2018-06-14T14:56:14.916Z,2.83
2018-06-14T14:58:42.959Z,2.50
2018-06-14T15:01:11.260Z,3.53
2018-06-14T15:03:39.348Z,3.00
2018-06-14T15:06:07.744Z,2.50
2018-06-14T15:08:36.217Z,2.50
2018-06-14T15:11:05.037Z,2.77
2018-06-14T15:13:33.557Z,2.33
2018-06-14T15:16:02.031Z,2.30
2018-06-14T15:18:30.666Z,2.57
2018-06-14T15:20:59.170Z,2.47
2018-06-14T15:23:27.725Z,2.10
2018-06-14T15:25:56.404Z,2.40
2018-06-14T15:28:24.929Z,2.40
2018-06-14T15:30:53.344Z,3.00
2018-06-14T15:33:22.309Z,2.40
2018-06-14T15:35:50.713Z,2.37
2018-06-14T15:38:19.336Z,2.40
2018-06-14T15:40:47.839Z,2.10
2018-06-14T15:43:16.269Z,2.00
2018-06-14T15:45:44.704Z,2.53
2018-06-14T15:48:13.240Z,3.03
2018-06-14T15:50:41.726Z,2.27
2018-06-14T15:53:10.332Z,2.23
2018-06-14T15:56:11.109Z,2.70
2018-06-14T15:58:39.563Z,3.27
2018-06-14T16:01:08.437Z,2.60
2018-06-14T16:03:36.800Z,3.37
2018-06-14T16:06:05.244Z,2.27
2018-06-14T16:08:33.728Z,2.80
2018-06-14T16:11:01.761Z,2.50
2018-06-14T16:13:30.131Z,2.67
2018-06-14T16:15:58.606Z,2.87
2018-06-14T16:18:27.029Z,2.40
2018-06-14T16:20:55.155Z,2.60
2018-06-14T16:23:23.556Z,2.43
2018-06-14T16:25:52.032Z,2.50
2018-06-14T16:28:20.570Z,2.60
2018-06-14T16:30:49.087Z,2.53
2018-06-14T16:33:17.495Z,2.80
2018-06-14T16:35:45.900Z,2.73
2018-06-14T16:38:14.605Z,2.30
2018-06-14T16:40:43.045Z,2.40
2018-06-14T16:43:11.132Z,3.37
2018-06-14T16:45:39.760Z,3.63
2018-06-14T16:48:08.180Z,3.77
2018-06-14T16:50:36.614Z,3.33
2018-06-14T16:53:05.486Z,2.60
2018-06-14T16:55:34.124Z,3.77
2018-06-14T16:58:02.672Z,3.00
2018-06-14T17:00:31.285Z,3.93
2018-06-14T17:03:00.885Z,2.53
2018-06-14T17:05:32.992Z,3.67
2018-06-14T17:08:01.447Z,4.00
2018-06-14T17:10:29.997Z,2.80
2018-06-14T17:12:58.459Z,2.80
2018-06-14T17:15:28.064Z,3.00
2018-06-14T17:17:56.477Z,3.23
2018-06-14T17:20:24.941Z,4.10
2018-06-14T17:22:53.887Z,2.53
2018-06-14T17:25:23.485Z,4.30
2018-06-14T17:27:51.933Z,2.97
2018-06-14T17:30:20.440Z,2.77
2018-06-14T17:32:48.962Z,2.77
2018-06-14T17:35:19.504Z,2.47
2018-06-14T17:37:50.398Z,2.87
2018-06-14T17:40:18.991Z,3.77
2018-06-14T17:42:47.404Z,3.60
2018-06-14T17:45:15.928Z,4.07
2018-06-14T17:47:44.476Z,3.10
2018-06-14T17:50:13.034Z,4.60
2018-06-14T17:52:42.632Z,4.37
2018-06-14T17:55:11.251Z,3.80
2018-06-14T17:57:39.616Z,3.07
2018-06-14T18:00:08.208Z,3.53
2018-06-14T18:02:36.714Z,2.70
2018-06-14T18:05:05.761Z,3.87
2018-06-14T18:07:34.340Z,2.83
2018-06-14T18:10:02.445Z,5.37
2018-06-14T18:12:31.898Z,3.17
2018-06-14T18:15:03.792Z,3.23
2018-06-14T18:17:32.165Z,3.27
2018-06-14T18:20:02.735Z,3.27
2018-06-14T18:22:31.248Z,6.03
2018-06-14T18:24:59.739Z,2.93
2018-06-14T18:27:28.250Z,3.70
2018-06-14T18:29:56.901Z,3.27
2018-06-14T18:32:25.477Z,4.33
2018-06-14T18:34:53.960Z,3.60
2018-06-14T18:37:22.419Z,3.50
2018-06-14T18:39:50.964Z,3.10
2018-06-14T18:42:19.425Z,2.93
2018-06-14T18:44:47.944Z,4.67
2018-06-14T18:47:16.449Z,4.00
2018-06-14T18:49:44.947Z,4.30
2018-06-14T18:52:21.368Z,4.10
2018-06-14T18:54:49.892Z,4.03
2018-06-14T18:57:18.388Z,3.57
2018-06-14T18:59:46.953Z,4.27
2018-06-14T19:02:15.541Z,3.47
2018-06-14T19:04:44.104Z,3.83
2018-06-14T19:07:12.576Z,4.60
2018-06-14T19:09:41.009Z,3.93
2018-06-14T19:12:09.684Z,3.77
2018-06-14T19:14:38.154Z,4.27
2018-06-14T19:17:06.696Z,4.07
2018-06-14T19:19:35.078Z,4.57
2018-06-14T19:22:03.577Z,3.30
2018-06-14T19:24:32.097Z,5.63
2018-06-14T19:27:00.735Z,5.27
2018-06-14T19:29:29.328Z,4.27
2018-06-14T19:31:59.154Z,3.47
2018-06-14T19:34:28.819Z,3.80
2018-06-14T19:36:57.495Z,3.53
2018-06-14T19:39:26.078Z,3.60
2018-06-14T19:41:54.565Z,4.00
2018-06-14T19:44:23.149Z,3.70
2018-06-14T19:46:51.676Z,3.47
2018-06-14T19:49:24.432Z,4.00
2018-06-14T19:51:53.454Z,3.87
2018-06-14T19:54:21.946Z,4.00
2018-06-14T19:56:50.384Z,5.40
2018-06-14T19:59:18.767Z,4.93
2018-06-14T20:01:47.016Z,3.60
2018-06-14T20:04:15.312Z,4.37
2018-06-14T20:06:43.649Z,3.47
2018-06-14T20:09:12.927Z,4.30
2018-06-14T20:11:41.239Z,4.47
2018-06-14T20:14:09.738Z,6.43
2018-06-14T20:16:38.108Z,6.90
2018-06-14T20:19:06.512Z,5.10
2018-06-14T20:21:35.128Z,5.73
2018-06-14T20:24:03.693Z,6.20
2018-06-14T20:26:32.151Z,4.73
2018-06-14T20:29:00.550Z,4.53
2018-06-14T20:31:29.113Z,4.33
2018-06-14T20:33:57.636Z,4.33
2018-06-14T20:36:26.112Z,4.60
2018-06-14T20:38:54.859Z,4.90
2018-06-14T20:41:23.300Z,4.53
2018-06-14T20:43:51.890Z,5.10
2018-06-14T20:46:20.296Z,5.03
2018-06-14T20:48:48.846Z,4.10
2018-06-14T20:51:17.262Z,4.50
2018-06-14T20:53:45.652Z,4.60
2018-06-14T20:56:14.215Z,6.57
2018-06-14T20:58:42.669Z,6.60
2018-06-14T21:01:11.329Z,4.27
2018-06-14T21:03:39.877Z,4.07
2018-06-14T21:06:09.488Z,4.10
2018-06-14T21:08:38.077Z,4.20
2018-06-14T21:11:06.538Z,3.80
2018-06-14T21:13:34.961Z,3.57
2018-06-14T21:16:03.532Z,6.10
2018-06-14T21:18:32.003Z,4.13
2018-06-14T21:21:02.571Z,4.83
2018-06-14T21:23:31.024Z,4.03
2018-06-14T21:25:59.465Z,4.27
2018-06-14T21:28:27.885Z,5.93
2018-06-14T21:30:56.389Z,5.17
2018-06-14T21:33:25.012Z,6.07
2018-06-14T21:35:53.312Z,7.07
2018-06-14T21:38:21.676Z,5.70
2018-06-14T21:40:50.188Z,4.63
2018-06-14T21:43:18.613Z,4.63
2018-06-14T21:45:47.044Z,4.80
2018-06-14T21:48:15.526Z,4.07
2018-06-14T21:50:43.880Z,4.23
2018-06-14T21:53:12.273Z,4.77
2018-06-14T21:55:41.025Z,4.57
2018-06-14T21:58:13.982Z,4.53
2018-06-14T22:00:42.539Z,5.20
2018-06-14T22:03:16.415Z,4.43
2018-06-14T22:05:44.821Z,4.90
2018-06-14T22:08:13.397Z,5.10
2018-06-14T22:10:41.885Z,5.20
2018-06-14T22:13:10.434Z,4.63
2018-06-14T22:15:38.909Z,4.33
2018-06-14T22:18:07.366Z,4.50
2018-06-14T22:20:36.914Z,6.13
2018-06-14T22:23:05.425Z,6.33
2018-06-14T22:25:33.853Z,5.27
2018-06-14T22:28:02.288Z,6.67
2018-06-14T22:30:30.693Z,9.37
2018-06-14T22:33:10.312Z,5.93
2018-06-14T22:35:38.784Z,6.13
2018-06-14T22:38:07.265Z,6.40
2018-06-14T22:40:35.758Z,7.30
2018-06-14T22:43:04.310Z,8.00
2018-06-14T22:45:32.816Z,6.90
2018-06-14T22:48:01.967Z,6.93
2018-06-14T22:50:41.568Z,6.23
2018-06-14T22:53:10.860Z,6.67
2018-06-14T22:55:39.485Z,6.77
2018-06-14T22:58:07.940Z,6.17
2018-06-14T23:01:48.170Z,6.07
2018-06-14T23:04:24.053Z,5.60
2018-06-14T23:06:52.524Z,5.97
2018-06-14T23:10:35.376Z,5.63
2018-06-14T23:13:04.400Z,7.13
2018-06-14T23:15:32.828Z,5.87
2018-06-14T23:18:01.435Z,6.80
2018-06-14T23:20:31.096Z,6.50
2018-06-14T23:23:00.406Z,9.43
2018-06-14T23:25:29.464Z,6.30
2018-06-14T23:27:58.020Z,6.07
2018-06-14T23:30:26.466Z,5.77
2018-06-14T23:32:54.980Z,6.80
2018-06-14T23:35:23.524Z,6.40
2018-06-14T23:37:51.940Z,6.07
2018-06-14T23:40:20.419Z,6.13
2018-06-14T23:42:48.950Z,6.87
2018-06-14T23:45:17.445Z,5.67
2018-06-14T23:47:46.274Z,6.40
2018-06-14T23:50:14.689Z,8.17
2018-06-14T23:52:43.145Z,6.57
2018-06-14T23:55:11.697Z,6.23
2018-06-14T23:57:40.299Z,6.13
